createdAt,value
2022-10-17T00:00:34.893Z,94887.31
2022-10-17T00:03:01.622Z,94887.44
2022-10-17T00:05:27.996Z,94893.41
2022-10-17T00:07:55.094Z,94890.84
2022-10-17T00:10:21.813Z,94882.09
2022-10-17T00:12:48.406Z,94895.47
2022-10-17T00:15:17.588Z,94897.94
2022-10-17T00:17:44.154Z,94897.22
2022-10-17T00:20:11.217Z,94902.56
2022-10-17T00:22:37.684Z,94899.88
2022-10-17T00:25:04.399Z,94906.31
2022-10-17T00:27:31.009Z,94905.66
2022-10-17T00:29:57.445Z,94911.28
2022-10-17T00:32:24.112Z,94909.81
2022-10-17T00:34:50.490Z,94914.09
2022-10-17T00:37:17.924Z,94915.47
2022-10-17T00:39:44.331Z,94915.47
2022-10-17T00:42:13.092Z,94913.88
2022-10-17T00:44:39.462Z,94911.56
2022-10-17T00:47:11.021Z,94920.78
2022-10-17T00:49:38.677Z,94915.84
2022-10-17T00:52:15.538Z,94910.13
2022-10-17T00:54:48.245Z,94915.38
2022-10-17T00:57:16.590Z,94913.78
2022-10-17T00:59:49.028Z,94916.41
2022-10-17T01:02:18.550Z,94903.63
2022-10-17T01:04:47.971Z,94912.22
2022-10-17T01:07:14.568Z,94908.66
2022-10-17T01:09:42.780Z,94908.19
2022-10-17T01:12:21.152Z,94910.03
2022-10-17T01:15:02.745Z,94920.88
2022-10-17T01:17:45.642Z,94917.88
2022-10-17T01:20:36.573Z,94912.53
2022-10-17T01:23:24.828Z,94915.06
2022-10-17T01:26:13.940Z,94914.28
2022-10-17T01:28:55.594Z,94912.75
2022-10-17T01:31:25.741Z,94918.72
2022-10-17T01:34:04.521Z,94906.16
2022-10-17T01:36:48.595Z,94907.59
2022-10-17T01:39:29.984Z,94909.03
2022-10-17T01:42:00.673Z,94904.00
2022-10-17T01:44:35.420Z,94900.34
2022-10-17T01:47:10.698Z,94899.44
2022-10-17T01:49:40.768Z,94890.03
2022-10-17T01:52:14.885Z,94894.31
2022-10-17T01:54:53.436Z,94892.94
2022-10-17T01:57:29.478Z,94885.19
2022-10-17T01:59:57.229Z,94886.34
2022-10-17T02:02:25.770Z,94887.03
2022-10-17T02:04:52.770Z,94884.63
2022-10-17T02:07:19.808Z,94889.47
2022-10-17T02:09:46.953Z,94883.84
2022-10-17T02:12:40.156Z,94887.88
2022-10-17T02:15:28.541Z,94891.25
2022-10-17T02:18:15.796Z,94881.19
2022-10-17T02:20:52.997Z,94882.81
2022-10-17T02:23:22.359Z,94885.22
2022-10-17T02:26:02.551Z,94880.88
2022-10-17T02:28:52.437Z,94871.63
2022-10-17T02:31:26.814Z,94886.47
2022-10-17T02:34:02.751Z,94884.81
2022-10-17T02:36:35.851Z,94883.59
2022-10-17T02:39:04.148Z,94881.06
2022-10-17T02:41:31.850Z,94880.69
2022-10-17T02:44:01.642Z,94889.56
2022-10-17T02:46:30.512Z,94884.41
2022-10-17T02:49:03.255Z,94880.81
2022-10-17T02:51:42.160Z,94879.34
2022-10-17T02:54:18.923Z,94884.06
2022-10-17T02:56:57.867Z,94872.63
2022-10-17T02:59:26.068Z,94883.09
2022-10-17T03:01:52.901Z,94885.97
2022-10-17T03:04:19.754Z,94883.44
2022-10-17T03:06:48.849Z,94892.53
2022-10-17T03:09:15.626Z,94897.28
2022-10-17T03:11:42.139Z,94900.66
2022-10-17T03:14:08.985Z,94906.44
2022-10-17T03:16:36.487Z,94901.56
2022-10-17T03:19:04.305Z,94910.47
2022-10-17T03:21:31.962Z,94893.72
2022-10-17T03:23:58.379Z,94906.31
2022-10-17T03:26:24.858Z,94907.94
2022-10-17T03:28:53.685Z,94913.16
2022-10-17T03:31:22.433Z,94907.41
2022-10-17T03:33:49.767Z,94914.75
2022-10-17T03:36:18.467Z,94917.31
2022-10-17T03:38:46.990Z,94920.94
2022-10-17T03:41:14.141Z,94918.81
2022-10-17T03:43:40.813Z,94921.13
2022-10-17T03:46:08.217Z,94918.81
2022-10-17T03:48:35.747Z,94915.22
2022-10-17T03:51:06.691Z,94915.31
2022-10-17T03:53:37.398Z,94905.22
2022-10-17T03:56:17.027Z,94913.06
2022-10-17T03:58:45.545Z,94921.41
2022-10-17T04:01:15.785Z,94911.44
2022-10-17T04:03:44.014Z,94911.19
2022-10-17T04:06:12.468Z,94908.19
2022-10-17T04:08:42.787Z,94922.53
2022-10-17T04:11:19.649Z,94924.66
2022-10-17T04:13:51.980Z,94921.03
2022-10-17T04:16:18.416Z,94925.28
2022-10-17T04:18:55.453Z,94923.00
2022-10-17T04:21:28.154Z,94928.56
2022-10-17T04:23:56.552Z,94930.19
2022-10-17T04:26:42.501Z,94932.56
2022-10-17T04:29:09.181Z,94940.38
2022-10-17T04:31:35.830Z,94933.84
2022-10-17T04:34:14.457Z,94932.72
2022-10-17T04:36:41.083Z,94941.00
2022-10-17T04:39:08.492Z,94940.66
2022-10-17T04:41:35.940Z,94941.19
2022-10-17T04:44:02.654Z,94942.44
2022-10-17T04:46:35.010Z,94951.50
2022-10-17T04:49:01.648Z,94950.69
2022-10-17T04:51:28.907Z,94949.28
2022-10-17T04:54:10.093Z,94950.78
2022-10-17T04:56:39.363Z,94950.78
2022-10-17T04:59:05.821Z,94951.28
2022-10-17T05:01:33.011Z,94950.47
2022-10-17T05:03:59.849Z,94950.09
2022-10-17T05:06:31.459Z,94945.09
2022-10-17T05:09:27.952Z,94949.19
2022-10-17T05:11:54.510Z,94948.06
2022-10-17T05:14:21.433Z,94948.56
2022-10-17T05:16:48.105Z,94956.06
2022-10-17T05:19:14.726Z,94957.03
2022-10-17T05:21:45.659Z,94954.16
2022-10-17T05:24:14.676Z,94945.38
2022-10-17T05:26:41.092Z,94952.22
2022-10-17T05:29:07.605Z,94954.13
2022-10-17T05:31:38.051Z,94962.91
2022-10-17T05:34:08.036Z,94961.69
2022-10-17T05:36:37.721Z,94963.16
2022-10-17T05:39:05.028Z,94965.09
2022-10-17T05:41:33.541Z,94970.16
2022-10-17T05:44:03.100Z,94965.31
2022-10-17T05:46:41.154Z,94967.94
2022-10-17T05:49:15.079Z,94958.06
2022-10-17T05:51:52.050Z,94964.59
2022-10-17T05:54:18.549Z,94969.63
2022-10-17T05:56:45.400Z,94962.59
2022-10-17T05:59:12.089Z,94964.19
2022-10-17T06:02:01.102Z,94968.84
2022-10-17T06:04:27.810Z,94971.94
2022-10-17T06:06:56.136Z,94980.28
2022-10-17T06:09:23.659Z,94984.94
2022-10-17T06:11:52.769Z,94986.75
2022-10-17T06:14:19.857Z,94987.50
2022-10-17T06:16:48.210Z,94993.00
2022-10-17T06:19:15.684Z,94991.25
2022-10-17T06:21:42.160Z,94986.03
2022-10-17T06:24:12.556Z,94983.34
2022-10-17T06:26:41.240Z,94993.44
2022-10-17T06:29:09.220Z,94997.56
2022-10-17T06:31:41.810Z,95005.06
2022-10-17T06:34:08.340Z,94995.59
2022-10-17T06:36:34.862Z,95000.78
2022-10-17T06:39:01.417Z,95006.44
2022-10-17T06:41:33.872Z,95013.59
2022-10-17T06:44:10.797Z,95013.50
2022-10-17T06:47:00.063Z,95017.00
2022-10-17T06:49:27.729Z,95023.88
2022-10-17T06:52:03.473Z,95025.59
2022-10-17T06:54:39.536Z,95033.31
2022-10-17T06:57:30.325Z,95030.56
2022-10-17T07:00:20.177Z,95035.06
2022-10-17T07:02:50.941Z,95039.09
2022-10-17T07:05:19.345Z,95043.09
2022-10-17T07:07:47.476Z,95047.09
2022-10-17T07:10:16.159Z,95051.69
2022-10-17T07:12:45.684Z,95048.72
2022-10-17T07:15:12.448Z,95044.66
2022-10-17T07:17:38.859Z,95050.31
2022-10-17T07:20:06.430Z,95049.34
2022-10-17T07:22:35.098Z,95045.69
2022-10-17T07:25:01.812Z,95048.81
2022-10-17T07:27:36.884Z,95050.41
2022-10-17T07:30:04.460Z,95046.41
2022-10-17T07:32:39.273Z,95045.03
2022-10-17T07:35:09.142Z,95049.94
2022-10-17T07:37:35.888Z,95057.81
2022-10-17T07:40:02.857Z,95064.09
2022-10-17T07:42:29.371Z,95058.78
2022-10-17T07:44:55.799Z,95067.44
2022-10-17T07:47:23.230Z,95073.69
2022-10-17T07:49:50.195Z,95073.63
2022-10-17T07:52:17.486Z,95066.78
2022-10-17T07:54:44.343Z,95069.63
2022-10-17T07:57:10.872Z,95072.47
2022-10-17T07:59:38.234Z,95071.94
2022-10-17T08:02:04.769Z,95077.88
2022-10-17T08:04:31.331Z,95074.22
2022-10-17T08:07:11.336Z,95076.28
2022-10-17T08:09:44.295Z,95080.66
2022-10-17T08:12:10.925Z,95083.47
2022-10-17T08:14:39.129Z,95078.25
2022-10-17T08:17:05.505Z,95076.56
2022-10-17T08:19:32.126Z,95083.06
2022-10-17T08:21:59.149Z,95073.97
2022-10-17T08:24:25.694Z,95074.13
2022-10-17T08:26:53.305Z,95080.66
2022-10-17T08:29:19.858Z,95084.84
2022-10-17T08:31:47.888Z,95073.97
2022-10-17T08:34:15.882Z,95073.66
2022-10-17T08:36:42.288Z,95074.25
2022-10-17T08:39:08.692Z,95070.19
2022-10-17T08:41:51.229Z,95073.09
2022-10-17T08:44:36.150Z,95075.84
2022-10-17T08:47:09.105Z,95074.00
2022-10-17T08:49:55.750Z,95068.38
2022-10-17T08:52:47.217Z,95072.66
2022-10-17T08:57:44.448Z,95078.25
2022-10-17T09:00:18.016Z,95069.19
2022-10-17T09:03:21.167Z,95072.38
2022-10-17T09:05:54.529Z,95076.19
2022-10-17T09:08:35.634Z,95074.91
2022-10-17T09:11:26.604Z,95075.50
2022-10-17T09:14:00.945Z,95079.19
2022-10-17T09:16:47.971Z,95072.38
2022-10-17T09:19:24.274Z,95083.44
2022-10-17T09:22:04.264Z,95083.22
2022-10-17T09:24:51.008Z,95082.59
2022-10-17T09:27:24.906Z,95085.81
2022-10-17T09:29:58.615Z,95087.47
2022-10-17T09:32:25.613Z,95082.75
2022-10-17T09:34:53.813Z,95077.91
2022-10-17T09:37:24.760Z,95087.75
2022-10-17T09:39:51.303Z,95088.31
2022-10-17T09:42:21.647Z,95094.00
2022-10-17T09:45:16.708Z,95098.00
2022-10-17T09:48:11.163Z,95093.59
2022-10-17T09:50:37.717Z,95094.03
2022-10-17T09:53:21.335Z,95094.06
2022-10-17T09:55:51.547Z,95097.94
2022-10-17T09:58:20.398Z,95097.06
2022-10-17T10:00:48.866Z,95094.66
2022-10-17T10:03:21.359Z,95095.88
2022-10-17T10:06:06.966Z,95098.44
2022-10-17T10:08:53.686Z,95105.16
2022-10-17T10:11:25.673Z,95095.94
2022-10-17T10:13:52.671Z,95110.94
2022-10-17T10:16:19.062Z,95106.81
2022-10-17T10:18:48.710Z,95105.91
2022-10-17T10:21:22.950Z,95101.22
2022-10-17T10:24:12.576Z,95105.47
2022-10-17T10:26:49.780Z,95103.97
2022-10-17T10:29:32.598Z,95110.38
2022-10-17T10:32:08.069Z,95117.56
2022-10-17T10:34:36.085Z,95102.81
2022-10-17T10:37:04.165Z,95112.03
2022-10-17T10:39:53.051Z,95108.94
2022-10-17T10:42:24.924Z,95106.13
2022-10-17T10:44:53.886Z,95112.91
2022-10-17T10:47:25.001Z,95108.13
2022-10-17T10:50:07.637Z,95103.03
2022-10-17T10:52:43.619Z,95107.94
2022-10-17T10:55:23.867Z,95109.94
2022-10-17T10:57:55.585Z,95104.09
2022-10-17T11:00:26.025Z,95105.22
2022-10-17T11:03:02.325Z,95101.53
2022-10-17T11:05:38.020Z,95105.72
2022-10-17T11:08:33.973Z,95102.38
2022-10-17T11:11:18.201Z,95101.63
2022-10-17T11:14:31.193Z,95103.66
2022-10-17T11:17:28.831Z,95097.09
2022-10-17T11:20:22.958Z,95101.66
2022-10-17T11:22:57.473Z,95099.44
2022-10-17T11:25:36.831Z,95096.53
2022-10-17T11:28:11.604Z,95091.88
2022-10-17T11:30:52.322Z,95090.06
2022-10-17T11:33:27.142Z,95084.38
2022-10-17T11:35:58.863Z,95101.41
2022-10-17T11:38:32.330Z,95094.00
2022-10-17T11:41:00.075Z,95098.56
2022-10-17T11:43:35.533Z,95094.38
2022-10-17T11:46:10.504Z,95094.72
2022-10-17T11:48:48.504Z,95086.19
2022-10-17T11:54:13.222Z,95089.25
2022-10-17T11:57:18.364Z,95087.38
2022-10-17T12:00:12.829Z,95089.91
2022-10-17T12:02:57.736Z,95090.81
2022-10-17T12:05:42.901Z,95087.88
2022-10-17T12:08:17.722Z,95081.91
2022-10-17T12:11:05.878Z,95088.81
2022-10-17T12:13:32.450Z,95083.09
2022-10-17T12:16:19.094Z,95083.00
2022-10-17T12:19:00.783Z,95086.28
2022-10-17T12:21:31.294Z,95076.22
2022-10-17T12:23:58.658Z,95080.84
2022-10-17T12:26:27.721Z,95079.63
2022-10-17T12:28:54.781Z,95077.00
2022-10-17T12:31:32.468Z,95086.97
2022-10-17T12:34:04.756Z,95076.00
2022-10-17T12:36:31.102Z,95081.88
2022-10-17T12:39:03.657Z,95074.78
2022-10-17T12:41:38.934Z,95072.28
2022-10-17T12:44:14.594Z,95083.78
2022-10-17T12:46:41.236Z,95076.66
2022-10-17T12:49:38.501Z,95085.50
2022-10-17T12:52:32.211Z,95084.00
2022-10-17T12:55:13.990Z,95084.75
2022-10-17T12:57:47.272Z,95084.66
2022-10-17T13:00:34.464Z,95085.50
2022-10-17T13:03:15.263Z,95090.75
2022-10-17T13:05:43.660Z,95086.13
2022-10-17T13:08:17.724Z,95091.84
2022-10-17T13:10:49.104Z,95083.84
2022-10-17T13:13:23.968Z,95086.97
2022-10-17T13:15:52.729Z,95082.81
2022-10-17T13:18:29.698Z,95080.53
2022-10-17T13:21:06.560Z,95081.63
2022-10-17T13:23:36.012Z,95087.28
2022-10-17T13:26:12.662Z,95086.56
2022-10-17T13:28:45.913Z,95080.06
2022-10-17T13:31:33.432Z,95088.59
2022-10-17T13:34:03.251Z,95086.34
2022-10-17T13:36:32.573Z,95088.59
2022-10-17T13:39:04.838Z,95096.59
2022-10-17T13:41:36.543Z,95081.28
2022-10-17T13:44:12.542Z,95097.72
2022-10-17T13:46:39.984Z,95095.06
2022-10-17T13:49:39.257Z,95104.94
2022-10-17T13:52:14.087Z,95102.97
2022-10-17T13:54:42.936Z,95108.69
2022-10-17T13:57:26.148Z,95103.59
2022-10-17T13:59:59.418Z,95098.75
2022-10-17T14:02:28.827Z,95097.19
2022-10-17T14:05:18.103Z,95106.69
2022-10-17T14:08:13.754Z,95107.28
2022-10-17T14:10:43.729Z,95105.22
2022-10-17T14:13:34.113Z,95105.19
2022-10-17T14:16:03.441Z,95100.75
2022-10-17T14:18:36.711Z,95106.22
2022-10-17T14:21:40.520Z,95101.72
2022-10-17T14:23:52.870Z,95107.81
2022-10-17T14:26:22.374Z,95108.66
2022-10-17T14:29:05.469Z,95112.47
2022-10-17T14:31:36.924Z,95112.13
2022-10-17T14:34:04.508Z,95113.75
2022-10-17T14:36:44.329Z,95114.06
2022-10-17T14:39:20.360Z,95114.00
2022-10-17T14:41:47.905Z,95117.88
2022-10-17T14:44:22.837Z,95113.03
2022-10-17T14:46:54.683Z,95112.75
2022-10-17T14:49:27.352Z,95113.97
2022-10-17T14:52:23.479Z,95115.97
2022-10-17T14:54:50.293Z,95127.50
2022-10-17T14:57:28.661Z,95118.00
2022-10-17T14:59:57.039Z,95123.88
2022-10-17T15:02:25.767Z,95123.25
2022-10-17T15:04:52.818Z,95123.41
2022-10-17T15:07:21.111Z,95119.16
2022-10-17T15:09:51.425Z,95125.84
2022-10-17T15:12:23.370Z,95122.13
2022-10-17T15:14:50.599Z,95125.00
2022-10-17T15:17:23.739Z,95128.53
2022-10-17T15:19:50.759Z,95125.72
2022-10-17T15:22:18.124Z,95126.66
2022-10-17T15:24:47.909Z,95132.44
2022-10-17T15:27:22.702Z,95132.25
2022-10-17T15:29:50.368Z,95128.81
2022-10-17T15:32:17.167Z,95131.09
2022-10-17T15:34:43.672Z,95134.03
2022-10-17T15:37:25.196Z,95138.03
2022-10-17T15:39:54.961Z,95139.94
2022-10-17T15:42:31.040Z,95139.41
2022-10-17T15:44:58.389Z,95144.66
2022-10-17T15:47:31.466Z,95145.38
2022-10-17T15:49:58.841Z,95133.81
2022-10-17T15:52:25.366Z,95135.81
2022-10-17T15:54:52.610Z,95131.53
2022-10-17T15:57:31.234Z,95134.13
2022-10-17T15:59:59.149Z,95137.59
2022-10-17T16:02:26.323Z,95142.94
2022-10-17T16:04:52.950Z,95142.53
2022-10-17T16:07:20.524Z,95141.50
2022-10-17T16:09:47.064Z,95143.59
2022-10-17T16:14:53.292Z,95145.66
2022-10-17T16:17:19.686Z,95148.81
2022-10-17T16:19:46.111Z,95142.59
2022-10-17T16:22:20.957Z,95146.97
2022-10-17T16:24:47.411Z,95152.78
2022-10-17T16:27:13.862Z,95150.25
2022-10-17T16:29:40.268Z,95158.31
2022-10-17T16:32:06.793Z,95155.41
2022-10-17T16:34:33.217Z,95152.53
2022-10-17T16:36:59.560Z,95158.34
2022-10-17T16:41:58.600Z,95148.28
2022-10-17T16:44:25.414Z,95163.56
2022-10-17T16:46:51.769Z,95164.81
2022-10-17T16:49:18.258Z,95161.47
2022-10-17T16:51:44.701Z,95174.69
2022-10-17T16:54:11.183Z,95173.56
2022-10-17T16:56:37.666Z,95172.81
2022-10-17T16:59:04.158Z,95169.22
2022-10-17T17:01:30.520Z,95171.06
2022-10-17T17:03:57.071Z,95171.31
2022-10-17T17:06:26.665Z,95170.81
2022-10-17T17:08:53.953Z,95172.94
2022-10-17T17:11:24.549Z,95171.50
2022-10-17T17:13:51.237Z,95178.91
2022-10-17T17:16:23.868Z,95174.63
2022-10-17T17:18:55.560Z,95181.63
2022-10-17T17:21:22.788Z,95182.78
2022-10-17T17:23:49.828Z,95189.63
2022-10-17T17:26:19.057Z,95198.69
2022-10-17T17:28:46.140Z,95195.91
2022-10-17T17:31:15.531Z,95210.53
2022-10-17T17:33:42.578Z,95196.16
2022-10-17T17:36:12.809Z,95198.91
2022-10-17T17:38:41.123Z,95196.44
2022-10-17T17:41:07.869Z,95203.91
2022-10-17T17:43:35.450Z,95203.28
2022-10-17T17:46:02.361Z,95200.81
2022-10-17T17:48:28.934Z,95209.16
2022-10-17T17:50:55.440Z,95209.34
2022-10-17T17:53:21.809Z,95204.66
2022-10-17T17:55:48.213Z,95207.63
2022-10-17T17:58:14.591Z,95209.63
2022-10-17T18:00:41.070Z,95218.31
2022-10-17T18:03:07.849Z,95213.47
2022-10-17T18:05:34.322Z,95217.03
2022-10-17T18:08:00.715Z,95221.06
2022-10-17T18:10:28.267Z,95223.84
2022-10-17T18:12:54.660Z,95224.75
2022-10-17T18:15:21.052Z,95219.31
2022-10-17T18:17:47.506Z,95226.56
2022-10-17T18:20:13.880Z,95222.69
2022-10-17T18:22:40.275Z,95226.22
2022-10-17T18:25:07.167Z,95227.63
2022-10-17T18:27:33.594Z,95222.66
2022-10-17T18:30:00.064Z,95226.50
2022-10-17T18:32:29.628Z,95234.19
2022-10-17T18:34:56.258Z,95232.56
2022-10-17T18:37:22.622Z,95239.47
2022-10-17T18:39:51.523Z,95246.81
2022-10-17T18:42:18.473Z,95235.50
2022-10-17T18:44:44.861Z,95245.03
2022-10-17T18:47:11.273Z,95244.88
2022-10-17T18:49:37.708Z,95250.91
2022-10-17T18:52:04.219Z,95256.94
2022-10-17T18:54:33.333Z,95242.63
2022-10-17T18:56:59.712Z,95255.38
2022-10-17T18:59:26.270Z,95250.44
2022-10-17T19:01:52.698Z,95254.63
2022-10-17T19:04:19.168Z,95248.88
2022-10-17T19:06:45.699Z,95256.06
2022-10-17T19:09:13.468Z,95259.13
2022-10-17T19:11:40.589Z,95251.38
2022-10-17T19:14:12.758Z,95255.19
2022-10-17T19:16:43.710Z,95256.84
2022-10-17T19:19:21.680Z,95263.47
2022-10-17T19:21:48.645Z,95256.16
2022-10-17T19:24:25.490Z,95257.28
2022-10-17T19:26:54.368Z,95251.81
2022-10-17T19:29:22.547Z,95251.69
2022-10-17T19:31:49.120Z,95254.13
2022-10-17T19:34:16.419Z,95254.75
2022-10-17T19:36:43.325Z,95252.81
2022-10-17T19:39:18.731Z,95244.88
2022-10-17T19:41:47.687Z,95252.09
2022-10-17T19:44:14.964Z,95262.69
2022-10-17T19:46:44.306Z,95261.53
2022-10-17T19:49:11.512Z,95268.94
2022-10-17T19:51:37.971Z,95269.81
2022-10-17T19:54:04.634Z,95262.81
2022-10-17T19:56:32.854Z,95261.44
2022-10-17T19:58:59.557Z,95274.47
2022-10-17T20:01:28.699Z,95270.41
2022-10-17T20:03:55.716Z,95263.38
2022-10-17T20:06:22.848Z,95268.81
2022-10-17T20:08:49.744Z,95258.41
2022-10-17T20:11:22.005Z,95268.81
2022-10-17T20:13:48.972Z,95269.72
2022-10-17T20:16:21.860Z,95263.00
2022-10-17T20:18:54.503Z,95273.00
2022-10-17T20:21:35.056Z,95277.38
2022-10-17T20:24:03.062Z,95277.66
2022-10-17T20:26:39.136Z,95278.25
2022-10-17T20:29:18.786Z,95281.75
2022-10-17T20:31:46.558Z,95281.63
2022-10-17T20:34:15.044Z,95288.13
2022-10-17T20:36:41.896Z,95290.00
2022-10-17T20:39:10.844Z,95288.91
2022-10-17T20:41:37.234Z,95286.28
2022-10-17T20:44:03.946Z,95292.63
2022-10-17T20:46:44.322Z,95290.59
2022-10-17T20:49:17.265Z,95292.13
2022-10-17T20:51:44.270Z,95291.84
2022-10-17T20:54:11.674Z,95286.28
2022-10-17T20:56:38.538Z,95284.47
2022-10-17T20:59:08.074Z,95285.50
2022-10-17T21:01:35.812Z,95293.69
2022-10-17T21:04:21.494Z,95293.69
2022-10-17T21:06:51.126Z,95298.94
2022-10-17T21:09:17.922Z,95299.72
2022-10-17T21:11:44.359Z,95296.78
2022-10-17T21:14:11.966Z,95299.91
2022-10-17T21:16:39.412Z,95292.81
2022-10-17T21:19:06.266Z,95295.66
2022-10-17T21:21:35.791Z,95294.06
2022-10-17T21:24:05.367Z,95290.00
2022-10-17T21:26:33.534Z,95289.59
2022-10-17T21:29:05.358Z,95285.50
2022-10-17T21:31:34.021Z,95292.31
2022-10-17T21:34:09.041Z,95294.44
2022-10-17T21:36:35.739Z,95296.75
2022-10-17T21:39:02.537Z,95295.47
2022-10-17T21:41:29.744Z,95297.31
2022-10-17T21:43:58.756Z,95295.22
2022-10-17T21:46:26.084Z,95284.72
2022-10-17T21:48:52.843Z,95286.81
2022-10-17T21:51:21.965Z,95278.94
2022-10-17T21:53:49.113Z,95278.88
2022-10-17T21:56:18.588Z,95276.75
2022-10-17T21:58:45.795Z,95272.66
2022-10-17T22:01:18.222Z,95278.78
2022-10-17T22:03:47.526Z,95275.94
2022-10-17T22:09:04.900Z,95269.34
2022-10-17T22:11:34.888Z,95254.91
2022-10-17T22:14:07.289Z,95260.78
2022-10-17T22:16:34.982Z,95261.75
2022-10-17T22:19:06.296Z,95265.06
2022-10-17T22:21:34.617Z,95269.72
2022-10-17T22:24:04.023Z,95274.38
2022-10-17T22:26:31.694Z,95267.94
2022-10-17T22:28:58.351Z,95275.13
2022-10-17T22:31:25.129Z,95268.88
2022-10-17T22:33:51.719Z,95272.38
2022-10-17T22:36:18.215Z,95269.25
2022-10-17T22:38:44.863Z,95268.97
2022-10-17T22:41:11.226Z,95264.81
2022-10-17T22:43:37.613Z,95266.56
2022-10-17T22:46:06.272Z,95261.53
2022-10-17T22:48:33.268Z,95263.63
2022-10-17T22:51:00.514Z,95267.47
2022-10-17T22:53:27.181Z,95258.44
2022-10-17T22:55:56.073Z,95263.81
2022-10-17T22:58:23.404Z,95254.66
2022-10-17T23:00:51.585Z,95260.91
2022-10-17T23:03:19.549Z,95258.47
2022-10-17T23:05:46.052Z,95254.78
2022-10-17T23:08:13.614Z,95249.56
2022-10-17T23:10:40.528Z,95249.56
2022-10-17T23:13:07.126Z,95243.31
2022-10-17T23:15:34.163Z,95243.75
2022-10-17T23:18:01.706Z,95237.72
2022-10-17T23:20:29.733Z,95235.97
2022-10-17T23:22:56.921Z,95240.13
2022-10-17T23:25:23.550Z,95238.38
2022-10-17T23:27:49.949Z,95244.97
2022-10-17T23:30:16.861Z,95241.66
2022-10-17T23:32:43.433Z,95241.44
2022-10-17T23:35:10.280Z,95242.00
2022-10-17T23:37:37.268Z,95242.78
2022-10-17T23:40:04.842Z,95248.31
2022-10-17T23:42:31.706Z,95237.72
2022-10-17T23:44:58.058Z,95240.06
2022-10-17T23:47:24.569Z,95236.06
2022-10-17T23:49:51.042Z,95233.50
2022-10-17T23:52:17.412Z,95233.50
2022-10-17T23:54:44.018Z,95232.94
2022-10-17T23:57:10.397Z,95230.88
2022-10-17T23:59:36.805Z,95223.59
